Airfield :
LOGIN :

Register | Disclaimer

   EN    FR    IT 

 










Legend :    VFR   Marginal VFR   IFR   Intensive IFR   Very Intensive IFR
Visi :
Ceiling :
>= 8 km
>= 3000ft
5 to 8 km
1000 to 3000 ft
1500m to 5 km
500 to 1000 ft
800 to 1500m
200 to 500 ft
< 800m
< 200 ft
Symbols :   Thunderstorms  Fog  Heavy snow  Heavy precipitations  Wind > 20 kt
SIGMETs :     Misc.  Thunderstorms  Icing  Turbulence  Mountain Waves  Volcanic Ashes







- Airport Elevation : 197 ft
- IATA code : XOG
- Download approach charts


LFMO - Orange

CURRENT METAR :
  • 182000Z AUTO 29003KT 270V330 CAVOK 05/02 Q1014 NOSIG

EXPIRED METARs :
  • 181930Z AUTO 32006KT CAVOK 06/03 Q1014 NOSIG
  • 181900Z AUTO 32006KT CAVOK 06/03 Q1014 NOSIG
  • 181830Z AUTO 31006KT CAVOK 07/03 Q1015 NOSIG
  • 181800Z AUTO 33005KT CAVOK 06/03 Q1015 NOSIG
  • 181730Z AUTO 30005KT CAVOK 07/03 Q1015 NOSIG

TAF TAF LFMO
Valid from the 18 at 15:00 until the 19 at 15:00 UTC


181400Z 1815/1915 33012KT CAVOK
BECMG 1822/1824 VRB02KT 3000 BR
PROB30 1904/1907 0300 FG VV///
No reported NOTAMs for that airfield.
2 SIGMETs reported for the Marseille FIR (LFMM) :
 
Severe turbulence
LFMM SIGMET 8 VALID 182000/182300 LFPW
LFMM MARSEILLE FIR/UIR SEV TURB OBS WI N4445 E00700 - N4400 E00700 - N4415 E00245 - N4530 E00245 - N4445 E00700 FL160/220 MOV S 20KT WKN=
Severe turbulence
LFMM SIGMET 7 VALID 181700/182100 LFPW
LFMM MARSEILLE FIR/UIR SEV TURB FCST N OF LINE N4515 E00245 - N4500 E00700 FL320/380 MOV SW 15KT NC=



MET'MAP, your aeronautical weather chart ! - Copyright ORBIFLY December 2007 - Disclaimer

ORBIFLY MET'MAP TEAM :

Programming & Development : Alexandra Zaïnal
Concept & Development : Baudouin d'Aumeries
Co-Development & Prog : Marc-Olivier Méhu
Technical & hardware support : Manuel Goepfert

Contact : metmap@orbifly.com




SOURCES & CREDITS :

   NOAA